createdAt,value
2017-09-06T00:00:36.626Z,64.24
2017-09-06T00:03:02.742Z,64.26
2017-09-06T00:05:28.857Z,64.25
2017-09-06T00:07:54.936Z,64.35
2017-09-06T00:10:21.058Z,65.14
2017-09-06T00:12:47.390Z,65.48
2017-09-06T00:15:13.513Z,65.46
2017-09-06T00:17:39.622Z,65.68
2017-09-06T00:20:05.715Z,66.15
2017-09-06T00:22:31.839Z,66.33
2017-09-06T00:24:57.935Z,66.29
2017-09-06T00:27:24.295Z,66.27
2017-09-06T00:29:50.388Z,66.37
2017-09-06T00:32:16.474Z,66.37
2017-09-06T00:34:42.643Z,66.82
2017-09-06T00:37:08.752Z,67.08
2017-09-06T00:39:34.858Z,67.78
2017-09-06T00:42:00.978Z,67.39
2017-09-06T00:44:27.071Z,67.23
2017-09-06T00:46:53.202Z,67.77
2017-09-06T00:49:19.258Z,67.76
2017-09-06T00:51:45.913Z,67.77
2017-09-06T00:54:12.016Z,67.90
2017-09-06T00:56:38.128Z,67.98
2017-09-06T00:59:04.254Z,67.82
2017-09-06T01:01:31.165Z,67.70
2017-09-06T01:03:57.281Z,67.22
2017-09-06T01:06:23.439Z,67.79
2017-09-06T01:08:49.561Z,67.94
2017-09-06T01:11:15.652Z,68.34
2017-09-06T01:13:41.769Z,67.91
2017-09-06T01:16:07.874Z,68.22
2017-09-06T01:18:33.982Z,68.69
2017-09-06T01:21:00.056Z,68.90
2017-09-06T01:23:26.119Z,69.33
2017-09-06T01:25:52.243Z,69.65
2017-09-06T01:28:18.365Z,69.56
2017-09-06T01:30:44.469Z,69.64
2017-09-06T01:33:10.560Z,69.43
2017-09-06T01:35:36.644Z,69.74
2017-09-06T01:38:02.777Z,69.97
2017-09-06T01:40:29.344Z,69.96
2017-09-06T01:42:55.445Z,70.11
2017-09-06T01:45:21.835Z,70.09
2017-09-06T01:47:47.920Z,70.35
2017-09-06T01:50:14.085Z,70.44
2017-09-06T01:52:40.211Z,71.00
2017-09-06T01:55:06.289Z,70.68
2017-09-06T01:57:32.397Z,70.65
2017-09-06T01:59:58.521Z,70.81
2017-09-06T02:02:24.631Z,71.22
2017-09-06T02:04:50.723Z,71.14
2017-09-06T02:07:16.803Z,70.99
2017-09-06T02:09:42.878Z,71.56
2017-09-06T02:12:09.012Z,71.67
2017-09-06T02:14:35.113Z,71.37
2017-09-06T02:17:01.219Z,71.48
2017-09-06T02:19:27.301Z,71.72
2017-09-06T02:21:53.379Z,72.11
2017-09-06T02:24:19.496Z,72.28
2017-09-06T02:26:45.602Z,72.16
2017-09-06T02:29:11.702Z,72.10
2017-09-06T02:31:37.806Z,72.26
2017-09-06T02:34:03.888Z,72.48
2017-09-06T02:36:29.961Z,72.50
2017-09-06T02:38:56.108Z,72.45
2017-09-06T02:41:22.212Z,72.52
2017-09-06T02:43:48.339Z,72.26
2017-09-06T02:46:14.426Z,72.10
2017-09-06T02:48:40.514Z,71.96
2017-09-06T02:51:06.610Z,71.55
2017-09-06T02:53:32.734Z,71.85
2017-09-06T02:55:58.817Z,71.89
2017-09-06T02:58:24.926Z,71.51
2017-09-06T03:00:51.009Z,71.44
2017-09-06T03:03:17.113Z,71.55
2017-09-06T03:05:43.236Z,71.76
2017-09-06T03:08:09.347Z,70.96
2017-09-06T03:10:35.435Z,71.21
2017-09-06T03:13:01.549Z,71.50
2017-09-06T03:15:27.641Z,70.75
2017-09-06T03:17:53.818Z,71.09
2017-09-06T03:20:20.018Z,71.44
2017-09-06T03:22:46.136Z,71.35
2017-09-06T03:25:12.262Z,70.83
2017-09-06T03:27:38.358Z,70.37
2017-09-06T03:30:04.445Z,70.58
2017-09-06T03:32:30.530Z,70.64
2017-09-06T03:34:56.610Z,70.69
2017-09-06T03:37:22.729Z,70.11
2017-09-06T03:39:48.829Z,69.55
2017-09-06T03:42:14.938Z,69.66
2017-09-06T03:44:41.052Z,69.42
2017-09-06T03:47:07.184Z,69.80
2017-09-06T03:49:33.313Z,70.07
2017-09-06T03:51:59.427Z,69.86
2017-09-06T03:54:25.540Z,69.74
2017-09-06T03:56:51.686Z,69.48
2017-09-06T03:59:17.766Z,69.46
2017-09-06T04:01:43.893Z,69.64
2017-09-06T04:04:09.976Z,70.15
2017-09-06T04:06:36.094Z,70.07
2017-09-06T04:09:02.204Z,69.49
2017-09-06T04:11:28.345Z,69.02
2017-09-06T04:13:54.456Z,69.08
2017-09-06T04:16:20.635Z,68.51
2017-09-06T04:18:46.809Z,68.57
2017-09-06T04:21:12.886Z,68.41
2017-09-06T04:23:39.009Z,68.32
2017-09-06T04:26:05.091Z,68.42
2017-09-06T04:28:31.153Z,68.23
2017-09-06T04:30:57.242Z,68.37
2017-09-06T04:33:23.334Z,68.18
2017-09-06T04:35:49.460Z,68.07
2017-09-06T04:38:15.543Z,68.41
2017-09-06T04:40:41.662Z,68.15
2017-09-06T04:43:07.768Z,67.29
2017-09-06T04:45:33.857Z,67.68
2017-09-06T04:47:59.966Z,67.47
2017-09-06T04:50:27.052Z,67.04
2017-09-06T04:52:53.109Z,66.97
2017-09-06T04:55:19.157Z,66.36
2017-09-06T04:57:45.294Z,66.12
2017-09-06T05:00:11.425Z,66.36
2017-09-06T05:02:37.609Z,65.79
2017-09-06T05:05:03.819Z,65.64
2017-09-06T05:07:29.900Z,66.04
2017-09-06T05:09:56.029Z,65.39
2017-09-06T05:12:22.174Z,65.76
2017-09-06T05:14:48.268Z,65.88
2017-09-06T05:17:14.361Z,65.53
2017-09-06T05:19:40.435Z,65.40
2017-09-06T05:22:06.525Z,65.42
2017-09-06T05:24:32.653Z,64.88
2017-09-06T05:26:58.770Z,64.46
2017-09-06T05:29:24.859Z,64.27
2017-09-06T05:31:50.929Z,63.92
2017-09-06T05:34:17.067Z,63.44
2017-09-06T05:36:43.187Z,63.09
2017-09-06T05:39:09.293Z,63.60
2017-09-06T05:41:35.344Z,63.75
2017-09-06T05:44:01.479Z,63.56
2017-09-06T05:46:27.564Z,63.68
2017-09-06T05:48:53.695Z,62.66
2017-09-06T05:51:19.824Z,62.18
2017-09-06T05:53:47.077Z,62.72
2017-09-06T05:56:13.202Z,63.41
2017-09-06T05:58:39.322Z,63.91
2017-09-06T06:01:05.449Z,63.98
2017-09-06T06:03:31.557Z,63.39
2017-09-06T06:05:57.623Z,62.43
2017-09-06T06:08:23.716Z,62.25
2017-09-06T06:10:49.794Z,62.46
2017-09-06T06:13:15.927Z,62.73
2017-09-06T06:15:42.014Z,62.41
2017-09-06T06:18:08.117Z,62.39
2017-09-06T06:20:34.196Z,62.03
2017-09-06T06:23:00.948Z,62.36
2017-09-06T06:25:27.046Z,62.16
2017-09-06T06:27:53.170Z,62.09
2017-09-06T06:30:19.284Z,61.29
2017-09-06T06:32:45.404Z,62.49
2017-09-06T06:35:11.536Z,63.10
2017-09-06T06:37:37.649Z,61.99
2017-09-06T06:40:03.716Z,62.31
2017-09-06T06:42:29.815Z,61.82
2017-09-06T06:44:55.959Z,61.42
2017-09-06T06:47:22.059Z,60.82
2017-09-06T06:49:48.155Z,60.69
2017-09-06T06:52:14.586Z,59.44
2017-09-06T06:54:40.715Z,58.05
2017-09-06T06:57:06.803Z,56.80
2017-09-06T06:59:32.919Z,56.29
2017-09-06T07:01:59.023Z,55.05
2017-09-06T07:04:25.090Z,54.36
2017-09-06T07:06:51.164Z,54.69
2017-09-06T07:09:17.281Z,54.40
2017-09-06T07:11:43.393Z,53.95
2017-09-06T07:14:09.512Z,54.08
2017-09-06T07:16:35.631Z,54.39
2017-09-06T07:19:01.719Z,55.26
2017-09-06T07:21:27.878Z,55.13
2017-09-06T07:23:53.970Z,55.84
2017-09-06T07:26:20.052Z,56.07
2017-09-06T07:28:46.137Z,55.80
2017-09-06T07:31:12.206Z,55.85
2017-09-06T07:33:38.326Z,55.62
2017-09-06T07:36:04.424Z,54.80
2017-09-06T07:38:30.516Z,54.57
2017-09-06T07:40:56.620Z,54.77
2017-09-06T07:43:22.731Z,52.64
2017-09-06T07:45:48.896Z,52.41
2017-09-06T07:48:14.993Z,52.35
2017-09-06T07:50:41.089Z,52.91
2017-09-06T07:53:07.180Z,52.51
2017-09-06T07:55:33.256Z,52.53
2017-09-06T07:57:59.351Z,52.25
2017-09-06T08:00:25.435Z,50.48
2017-09-06T08:02:51.833Z,49.73
2017-09-06T08:05:17.929Z,51.07
2017-09-06T08:07:50.133Z,54.47
2017-09-06T08:10:16.277Z,54.97
2017-09-06T08:12:42.379Z,56.11
2017-09-06T08:15:08.505Z,56.10
2017-09-06T08:17:34.563Z,54.63
2017-09-06T08:20:00.673Z,54.91
2017-09-06T08:22:26.758Z,55.26
2017-09-06T08:24:52.855Z,56.16
2017-09-06T08:27:18.971Z,56.47
2017-09-06T08:29:45.092Z,55.39
2017-09-06T08:32:11.169Z,55.00
2017-09-06T08:34:37.274Z,54.35
2017-09-06T08:37:03.412Z,55.24
2017-09-06T08:39:29.563Z,56.69
2017-09-06T08:41:55.719Z,55.66
2017-09-06T08:44:21.946Z,56.31
2017-09-06T08:46:48.019Z,56.87
2017-09-06T08:49:14.145Z,56.19
2017-09-06T08:51:40.249Z,55.47
2017-09-06T08:54:06.398Z,55.51
2017-09-06T08:56:32.505Z,54.64
2017-09-06T08:58:58.629Z,54.04
2017-09-06T09:01:24.774Z,53.08
2017-09-06T09:03:50.879Z,54.39
2017-09-06T09:06:17.026Z,53.27
2017-09-06T09:08:43.131Z,51.90
2017-09-06T09:11:09.265Z,51.32
2017-09-06T09:13:35.387Z,52.72
2017-09-06T09:16:01.504Z,51.35
2017-09-06T09:18:27.629Z,50.95
2017-09-06T09:20:53.714Z,52.18
2017-09-06T09:23:19.825Z,52.44
2017-09-06T09:25:45.919Z,51.46
2017-09-06T09:28:12.024Z,50.59
2017-09-06T09:30:38.111Z,50.46
2017-09-06T09:33:04.196Z,51.02
2017-09-06T09:35:30.293Z,50.87
2017-09-06T09:37:56.361Z,49.78
2017-09-06T09:40:22.445Z,49.01
2017-09-06T09:42:48.575Z,50.36
2017-09-06T09:45:14.681Z,50.11
2017-09-06T09:47:40.747Z,49.27
2017-09-06T09:50:06.878Z,49.14
2017-09-06T09:52:33.871Z,49.15
2017-09-06T09:54:59.975Z,48.79
2017-09-06T09:57:26.077Z,48.40
2017-09-06T09:59:52.929Z,47.42
2017-09-06T10:02:19.087Z,46.98
2017-09-06T10:04:45.207Z,46.68
2017-09-06T10:07:11.314Z,45.56
2017-09-06T10:09:37.400Z,45.54
2017-09-06T10:12:03.512Z,46.61
2017-09-06T10:14:29.628Z,46.09
2017-09-06T10:16:55.690Z,45.80
2017-09-06T10:19:21.790Z,46.29
2017-09-06T10:21:47.953Z,46.58
2017-09-06T10:24:14.453Z,48.57
2017-09-06T10:26:40.642Z,49.58
2017-09-06T10:29:06.794Z,49.68
2017-09-06T10:31:32.866Z,49.41
2017-09-06T10:33:59.008Z,48.76
2017-09-06T10:36:25.124Z,48.68
2017-09-06T10:38:51.227Z,48.80
2017-09-06T10:41:17.645Z,49.19
2017-09-06T10:43:43.902Z,49.60
2017-09-06T10:46:10.144Z,49.06
2017-09-06T10:48:36.406Z,47.18
2017-09-06T10:51:02.595Z,46.19
2017-09-06T10:53:28.713Z,46.62
2017-09-06T10:55:54.824Z,45.44
2017-09-06T10:58:20.942Z,43.94
2017-09-06T11:00:47.214Z,42.79
2017-09-06T11:03:13.350Z,42.54
2017-09-06T11:05:39.506Z,43.60
2017-09-06T11:08:05.593Z,44.13
2017-09-06T11:10:31.782Z,44.04
2017-09-06T11:12:57.904Z,43.60
2017-09-06T11:15:24.202Z,41.99
2017-09-06T11:17:50.318Z,40.89
2017-09-06T11:20:16.453Z,40.25
2017-09-06T11:22:42.600Z,40.06
2017-09-06T11:25:08.720Z,40.18
2017-09-06T11:27:34.819Z,40.16
2017-09-06T11:30:00.905Z,40.69
2017-09-06T11:32:27.129Z,41.06
2017-09-06T11:34:53.246Z,42.39
2017-09-06T11:37:19.456Z,43.15
2017-09-06T11:39:45.564Z,43.98
2017-09-06T11:42:11.702Z,43.28
2017-09-06T11:44:37.861Z,43.16
2017-09-06T11:47:03.970Z,43.21
2017-09-06T11:49:30.049Z,43.92
2017-09-06T11:51:56.181Z,43.87
2017-09-06T11:54:22.365Z,44.58
2017-09-06T11:56:48.475Z,45.71
2017-09-06T11:59:14.559Z,46.42
2017-09-06T12:01:41.470Z,50.95
2017-09-06T12:04:07.577Z,54.22
2017-09-06T12:06:33.720Z,57.13
2017-09-06T12:08:59.875Z,58.12
2017-09-06T12:11:26.007Z,59.09
2017-09-06T12:13:52.128Z,58.30
2017-09-06T12:16:18.253Z,58.39
2017-09-06T12:18:44.341Z,57.54
2017-09-06T12:21:10.508Z,55.45
2017-09-06T12:23:36.623Z,55.24
2017-09-06T12:26:03.683Z,54.23
2017-09-06T12:28:29.809Z,53.94
2017-09-06T12:30:55.924Z,53.28
2017-09-06T12:33:22.031Z,52.90
2017-09-06T12:35:55.319Z,52.49
2017-09-06T12:38:21.397Z,51.71
2017-09-06T12:40:47.549Z,52.71
2017-09-06T12:43:13.675Z,53.26
2017-09-06T12:45:39.764Z,52.54
2017-09-06T12:48:06.425Z,52.37
2017-09-06T12:50:32.528Z,50.40
2017-09-06T12:52:58.625Z,48.92
2017-09-06T12:55:24.781Z,48.54
2017-09-06T12:57:50.861Z,48.88
2017-09-06T13:00:16.938Z,49.08
2017-09-06T13:02:43.026Z,48.18
2017-09-06T13:05:09.154Z,49.23
2017-09-06T13:07:35.313Z,49.21
2017-09-06T13:10:01.444Z,46.64
2017-09-06T13:12:27.551Z,43.09
2017-09-06T13:14:53.694Z,41.51
2017-09-06T13:17:19.788Z,42.08
2017-09-06T13:19:45.942Z,40.04
2017-09-06T13:22:12.032Z,38.63
2017-09-06T13:24:38.153Z,35.80
2017-09-06T13:27:04.265Z,34.96
2017-09-06T13:29:30.378Z,29.74
2017-09-06T13:31:56.477Z,28.04
2017-09-06T13:34:22.606Z,28.74
2017-09-06T13:36:48.712Z,24.40
2017-09-06T13:39:14.814Z,25.30
2017-09-06T13:41:40.898Z,28.02
2017-09-06T13:44:06.984Z,30.83
2017-09-06T13:46:33.128Z,32.42
2017-09-06T13:49:00.192Z,35.34
2017-09-06T13:51:26.300Z,36.08
2017-09-06T13:53:52.397Z,34.39
2017-09-06T13:56:18.562Z,37.75
2017-09-06T13:58:44.736Z,39.88
2017-09-06T14:01:10.889Z,42.85
2017-09-06T14:03:37.023Z,43.05
2017-09-06T14:06:03.141Z,44.41
2017-09-06T14:08:29.209Z,44.52
2017-09-06T14:10:55.346Z,43.63
2017-09-06T14:13:21.439Z,44.35
2017-09-06T14:15:47.538Z,43.56
2017-09-06T14:18:13.647Z,43.07
2017-09-06T14:20:39.703Z,39.25
2017-09-06T14:23:05.819Z,34.34
2017-09-06T14:25:31.944Z,26.96
2017-09-06T14:27:58.049Z,24.13
2017-09-06T14:30:24.160Z,23.47
2017-09-06T14:32:50.270Z,22.10
2017-09-06T14:35:16.361Z,22.18
2017-09-06T14:37:42.485Z,21.33
2017-09-06T14:40:08.574Z,22.18
2017-09-06T14:42:34.693Z,22.98
2017-09-06T14:45:00.766Z,22.32
2017-09-06T14:47:26.858Z,20.57
2017-09-06T14:49:52.981Z,28.89
2017-09-06T14:52:19.095Z,34.59
2017-09-06T14:54:45.232Z,39.24
2017-09-06T14:57:11.362Z,41.54
2017-09-06T14:59:37.443Z,43.47
2017-09-06T15:02:03.774Z,44.73
2017-09-06T15:04:29.907Z,45.84
2017-09-06T15:06:56.004Z,47.89
2017-09-06T15:09:22.266Z,56.19
2017-09-06T15:11:48.581Z,64.79
2017-09-06T15:14:14.981Z,58.59
2017-09-06T15:16:41.473Z,58.33
2017-09-06T15:19:07.833Z,53.39
2017-09-06T15:21:34.136Z,55.96
2017-09-06T15:24:00.368Z,55.04
2017-09-06T15:26:26.499Z,58.94
2017-09-06T15:28:52.671Z,60.75
2017-09-06T15:31:18.977Z,60.32
2017-09-06T15:33:45.134Z,61.28
2017-09-06T15:36:11.253Z,64.21
2017-09-06T15:38:37.417Z,66.47
2017-09-06T15:41:03.547Z,68.10
2017-09-06T15:43:30.520Z,69.57
2017-09-06T15:45:56.645Z,71.17
2017-09-06T15:48:22.748Z,73.05
2017-09-06T15:50:48.863Z,73.43
2017-09-06T15:53:14.963Z,74.88
2017-09-06T15:55:41.060Z,77.62
2017-09-06T15:58:07.189Z,78.11
2017-09-06T16:00:33.305Z,77.20
2017-09-06T16:03:00.309Z,80.11
2017-09-06T16:05:26.416Z,79.49
2017-09-06T16:07:52.569Z,79.79
2017-09-06T16:10:18.753Z,80.69
2017-09-06T16:12:44.889Z,80.21
2017-09-06T16:15:10.996Z,79.35
2017-09-06T16:17:37.153Z,77.26
2017-09-06T16:20:03.265Z,75.52
2017-09-06T16:22:29.370Z,73.14
2017-09-06T16:24:55.454Z,71.79
2017-09-06T16:27:21.560Z,71.98
2017-09-06T16:29:47.715Z,71.56
2017-09-06T16:32:13.808Z,70.33
2017-09-06T16:34:39.972Z,69.84
2017-09-06T16:37:06.057Z,68.94
2017-09-06T16:39:32.217Z,68.53
2017-09-06T16:41:58.317Z,68.70
2017-09-06T16:44:24.469Z,67.94
2017-09-06T16:46:50.876Z,68.15
2017-09-06T16:49:17.000Z,68.46
2017-09-06T16:51:43.275Z,68.38
2017-09-06T16:54:09.491Z,67.48
2017-09-06T16:56:35.660Z,67.43
2017-09-06T16:59:01.780Z,68.14
2017-09-06T17:01:27.899Z,67.53
2017-09-06T17:03:54.001Z,67.27
2017-09-06T17:06:20.076Z,68.72
2017-09-06T17:08:46.256Z,69.43
2017-09-06T17:11:12.371Z,70.17
2017-09-06T17:13:38.463Z,69.62
2017-09-06T17:16:04.608Z,69.34
2017-09-06T17:18:30.718Z,69.18
2017-09-06T17:20:56.853Z,68.08
2017-09-06T17:23:22.978Z,68.09
2017-09-06T17:25:51.000Z,68.01
2017-09-06T17:28:17.104Z,67.33
2017-09-06T17:30:43.201Z,67.11
2017-09-06T17:33:09.285Z,66.80
2017-09-06T17:35:35.423Z,67.12
2017-09-06T17:38:01.529Z,67.64
2017-09-06T17:40:27.810Z,66.16
2017-09-06T17:42:53.901Z,65.78
2017-09-06T17:45:20.005Z,65.69
2017-09-06T17:47:46.137Z,65.29
2017-09-06T17:50:12.281Z,64.42
2017-09-06T17:52:38.405Z,64.52
2017-09-06T17:55:04.479Z,63.44
2017-09-06T17:57:30.554Z,61.63
2017-09-06T17:59:56.677Z,61.76
2017-09-06T18:02:22.775Z,60.69
2017-09-06T18:04:48.873Z,59.94
2017-09-06T18:07:14.993Z,59.43
2017-09-06T18:09:41.081Z,58.11
2017-09-06T18:12:07.281Z,58.25
2017-09-06T18:14:33.407Z,57.54
2017-09-06T18:16:59.527Z,56.67
2017-09-06T18:19:25.630Z,56.20
2017-09-06T18:21:51.703Z,55.84
2017-09-06T18:24:17.979Z,54.26
2017-09-06T18:26:44.045Z,54.78
2017-09-06T18:29:10.158Z,54.18
2017-09-06T18:31:36.270Z,53.93
2017-09-06T18:34:02.326Z,53.79
2017-09-06T18:36:28.450Z,54.23
2017-09-06T18:38:54.549Z,53.96
2017-09-06T18:41:20.684Z,54.30
2017-09-06T18:43:46.848Z,53.91
2017-09-06T18:46:13.017Z,53.98
2017-09-06T18:48:39.414Z,54.29
2017-09-06T18:51:05.539Z,54.09
2017-09-06T18:53:31.629Z,53.84
2017-09-06T18:55:57.917Z,54.28
2017-09-06T18:58:24.185Z,54.40
2017-09-06T19:00:50.390Z,54.26
2017-09-06T19:03:16.516Z,54.76
2017-09-06T19:05:42.618Z,55.41
2017-09-06T19:08:08.749Z,55.24
2017-09-06T19:10:34.843Z,55.82
2017-09-06T19:13:01.127Z,55.87
2017-09-06T19:15:27.867Z,55.72
2017-09-06T19:17:53.953Z,56.02
2017-09-06T19:20:20.236Z,55.56
2017-09-06T19:22:46.350Z,55.99
2017-09-06T19:25:12.451Z,55.79
2017-09-06T19:27:38.573Z,55.83
2017-09-06T19:30:04.676Z,55.52
2017-09-06T19:32:30.812Z,55.60
2017-09-06T19:34:56.932Z,56.59
2017-09-06T19:37:23.004Z,56.76
2017-09-06T19:39:49.128Z,56.97
2017-09-06T19:42:15.238Z,56.77
2017-09-06T19:44:41.314Z,56.57
2017-09-06T19:47:07.444Z,56.63
2017-09-06T19:49:33.544Z,57.33
2017-09-06T19:51:59.632Z,57.19
2017-09-06T19:54:25.748Z,57.43
2017-09-06T19:56:51.877Z,57.52
2017-09-06T19:59:17.988Z,57.04
2017-09-06T20:01:44.108Z,57.01
2017-09-06T20:04:10.255Z,56.89
2017-09-06T20:06:36.331Z,56.72
2017-09-06T20:09:02.468Z,57.09
2017-09-06T20:11:28.714Z,56.92
2017-09-06T20:13:54.778Z,56.38
2017-09-06T20:16:20.921Z,56.05
2017-09-06T20:18:47.083Z,55.91
2017-09-06T20:21:13.204Z,55.55
2017-09-06T20:23:39.280Z,55.51
2017-09-06T20:26:05.641Z,55.21
2017-09-06T20:28:32.535Z,55.76
2017-09-06T20:30:58.607Z,55.41
2017-09-06T20:33:24.764Z,55.46
2017-09-06T20:35:50.897Z,55.74
2017-09-06T20:38:17.024Z,55.39
2017-09-06T20:40:43.221Z,55.35
2017-09-06T20:43:09.297Z,55.40
2017-09-06T20:45:35.513Z,55.24
2017-09-06T20:48:01.630Z,55.04
2017-09-06T20:50:27.705Z,55.52
2017-09-06T20:52:53.840Z,55.06
2017-09-06T20:55:19.984Z,54.78
2017-09-06T20:57:46.074Z,54.84
2017-09-06T21:00:12.223Z,54.51
2017-09-06T21:02:38.349Z,55.27
2017-09-06T21:05:04.452Z,54.85
2017-09-06T21:07:30.608Z,54.86
2017-09-06T21:09:56.701Z,55.15
2017-09-06T21:12:22.816Z,54.84
2017-09-06T21:14:48.999Z,54.41
2017-09-06T21:17:15.098Z,54.69
2017-09-06T21:19:41.336Z,55.03
2017-09-06T21:22:07.474Z,55.30
2017-09-06T21:24:33.538Z,55.57
2017-09-06T21:26:59.713Z,55.48
2017-09-06T21:29:25.815Z,54.99
2017-09-06T21:31:51.913Z,54.81
2017-09-06T21:34:18.045Z,54.76
2017-09-06T21:36:44.169Z,54.84
2017-09-06T21:39:10.280Z,54.73
2017-09-06T21:41:36.358Z,54.50
2017-09-06T21:44:02.460Z,54.31
2017-09-06T21:46:28.538Z,54.26
2017-09-06T21:48:54.622Z,53.90
2017-09-06T21:51:20.778Z,54.09
2017-09-06T21:53:46.899Z,53.83
2017-09-06T21:56:12.995Z,53.97
2017-09-06T21:58:39.114Z,54.53
2017-09-06T22:01:05.184Z,54.28
2017-09-06T22:03:31.252Z,54.05
2017-09-06T22:05:57.410Z,54.41
2017-09-06T22:08:23.579Z,54.00
2017-09-06T22:10:49.670Z,54.26
2017-09-06T22:13:15.773Z,54.25
2017-09-06T22:15:41.873Z,54.13
2017-09-06T22:18:39.051Z,54.01
2017-09-06T22:21:05.217Z,53.63
2017-09-06T22:23:32.143Z,54.16
2017-09-06T22:25:58.246Z,54.48
2017-09-06T22:28:24.315Z,54.68
2017-09-06T22:30:50.399Z,54.54
2017-09-06T22:33:16.487Z,54.16
2017-09-06T22:35:43.345Z,53.63
2017-09-06T22:38:09.396Z,54.75
2017-09-06T22:40:35.682Z,54.22
2017-09-06T22:43:02.523Z,53.86
2017-09-06T22:45:29.377Z,54.15
2017-09-06T22:47:56.249Z,54.18
2017-09-06T22:50:22.353Z,53.85
2017-09-06T22:52:48.450Z,53.82
2017-09-06T22:55:14.531Z,54.67
2017-09-06T22:57:40.673Z,54.43
2017-09-06T23:00:06.784Z,54.82
2017-09-06T23:02:33.004Z,54.74
2017-09-06T23:04:59.082Z,55.72
2017-09-06T23:07:25.168Z,55.16
2017-09-06T23:09:51.268Z,54.96
2017-09-06T23:12:17.417Z,55.34
2017-09-06T23:14:43.516Z,54.94
2017-09-06T23:17:10.390Z,55.27
2017-09-06T23:19:36.541Z,55.46
2017-09-06T23:22:02.638Z,55.32
2017-09-06T23:24:28.738Z,55.54
2017-09-06T23:26:55.795Z,55.53
2017-09-06T23:29:21.927Z,55.50
2017-09-06T23:31:48.021Z,56.20
2017-09-06T23:34:14.086Z,55.88
2017-09-06T23:36:40.530Z,56.19
2017-09-06T23:39:06.629Z,56.54
2017-09-06T23:41:32.723Z,57.22
2017-09-06T23:43:58.790Z,58.09
2017-09-06T23:46:25.047Z,58.58
2017-09-06T23:48:51.149Z,60.02
2017-09-06T23:51:17.267Z,60.07
2017-09-06T23:53:43.387Z,59.80
2017-09-06T23:56:10.226Z,60.60
2017-09-06T23:58:37.041Z,61.35
